createdAt,value
2019-02-16T20:51:51.121Z,53.13
2019-02-16T20:54:21.364Z,57.78
2019-02-16T20:56:51.377Z,51.18
2019-02-16T20:59:27.358Z,52.05
2019-02-16T21:01:57.323Z,45.63
2019-02-16T21:04:39.387Z,45.70
2019-02-16T21:07:15.195Z,50.90
2019-02-16T21:09:45.214Z,50.28
2019-02-16T21:12:21.390Z,92.37
2019-02-16T21:14:51.471Z,119.90
2019-02-16T21:17:21.912Z,126.02
2019-02-16T21:20:04.220Z,129.07
2019-02-16T21:22:37.110Z,158.32
2019-02-16T21:25:10.887Z,201.10
2019-02-16T21:27:57.729Z,219.57
2019-02-16T21:30:24.370Z,218.50
2019-02-16T21:33:00.318Z,193.40
2019-02-16T21:35:42.154Z,239.32
2019-02-16T21:38:14.987Z,264.93
2019-02-16T21:40:45.217Z,230.92
2019-02-16T21:43:21.206Z,224.73
2019-02-16T21:46:20.987Z,172.98
2019-02-16T21:48:52.168Z,153.23
2019-02-16T21:51:23.240Z,166.85
2019-02-16T21:54:10.434Z,233.17
2019-02-16T21:56:53.849Z,291.52
2019-02-16T21:59:33.943Z,185.55
2019-02-16T22:02:16.905Z,142.28
2019-02-16T22:04:48.024Z,162.77
2019-02-16T22:07:19.231Z,192.43
2019-02-16T22:09:56.269Z,176.68
2019-02-16T22:12:30.605Z,195.65
2019-02-16T22:15:02.333Z,291.27
2019-02-16T22:17:31.604Z,294.57
2019-02-16T22:20:01.097Z,204.05
2019-02-16T22:22:30.599Z,153.62
2019-02-16T22:25:00.183Z,101.27
2019-02-16T22:27:29.806Z,108.32
2019-02-16T22:29:59.367Z,90.17
2019-02-16T22:32:28.999Z,103.78
2019-02-16T22:34:58.667Z,93.20
2019-02-16T22:37:28.255Z,116.60
2019-02-16T22:39:57.757Z,112.42
2019-02-16T22:42:27.358Z,112.03
2019-02-16T22:44:57.120Z,95.12
2019-02-16T22:47:26.822Z,101.90
2019-02-16T22:49:56.419Z,79.20
2019-02-16T22:52:25.858Z,64.03
2019-02-16T22:54:55.568Z,60.23
2019-02-16T22:57:25.138Z,68.22
2019-02-16T22:59:54.889Z,68.92
2019-02-16T23:02:24.391Z,75.40
2019-02-16T23:04:53.904Z,73.62
2019-02-16T23:07:23.497Z,71.15
2019-02-16T23:09:53.204Z,65.75
2019-02-16T23:12:22.624Z,66.62
2019-02-16T23:14:52.285Z,63.05
2019-02-16T23:17:21.940Z,75.80
2019-02-16T23:19:51.652Z,68.15
2019-02-16T23:22:21.165Z,70.55
2019-02-16T23:24:50.764Z,81.10
2019-02-16T23:27:20.361Z,71.22
2019-02-16T23:29:49.842Z,66.82
2019-02-16T23:32:19.259Z,67.30
2019-02-16T23:34:48.671Z,74.40
2019-02-16T23:37:18.438Z,69.03
2019-02-16T23:39:47.870Z,67.03
2019-02-16T23:42:17.494Z,72.03
2019-02-16T23:44:47.104Z,71.92
2019-02-16T23:47:16.744Z,65.45
2019-02-16T23:49:46.214Z,65.00
2019-02-16T23:52:15.859Z,68.33
2019-02-16T23:54:45.446Z,65.90
2019-02-16T23:57:15.057Z,58.55
2019-02-16T23:59:44.493Z,55.45
